METAR Data
IDs: Format: Raw Decoded Include TAF

Data at: 1019 UTC 26 Sep 2018

KBHM 260953Z 19007KT 10SM OVC009 24/23 A3008 RMK AO2 SLP175 T02440228
KBHM 260853Z 22007KT 10SM OVC008 24/23 A3008 RMK AO2 SLP175 60000 T02440228 58012
KBHM 260753Z 15003KT 10SM BKN009 OVC043 24/23 A3009 RMK AO2 LTG DSNT N RAE03 CIG 008V013 SLP179 P0000 T02390228
KBHM 260727Z 16004KT 10SM BKN010 BKN048 OVC110 24/23 A3009 RMK AO2 LTG DSNT N RAE03 P0000 T02390228
KBHM 260653Z 18007KT 7SM -RA FEW010 BKN055 OVC090 24/23 A3010 RMK AO2 RAB50 SLP185 P0000 T02390228
KBHM 260629Z 16003KT 10SM SCT009 BKN065 OVC095 24/23 A3011 RMK AO2 T02390228
KBHM 260553Z 00000KT 10SM FEW060 BKN250 24/22 A3011 RMK AO2 SLP188 60000 T02390222 10272 20239 403280222 58005
KBHM 260453Z 21004KT 10SM SCT055 24/22 A3013 RMK AO2 RAB09E24 SLP192 P0000 T02390222
KBHM 260353Z 19004KT 10SM FEW085 SCT120 25/22 A3013 RMK AO2 LTG DSNT NW SLP194 T02500222
KBHM 260253Z 17005KT 10SM FEW055 SCT080 SCT095 26/22 A3013 RMK AO2 LTG DSNT W SLP193 T02560222 51024
KBHM 260153Z 17005KT 10SM FEW049 SCT060 SCT110 27/22 A3011 RMK AO2 SLP188 T02670217
KBHM 260053Z 16005KT 10SM FEW060 SCT100 27/22 A3007 RMK AO2 LTG DSNT N SLP176 T02670217
KBHM 252353Z 17008KT 10SM FEW035 SCT060 BKN250 27/23 A3005 RMK AO2 LTG DSNT N AND NW SLP169 60002 T02720228 10328 20272 53003
KBHM 252253Z 15003KT 10SM FEW060 SCT085 BKN250 27/23 A3004 RMK AO2 LTG DSNT N AND NW RAB2158E17 SLP165 P0002 T02720233
KBHM 252153Z 15007KT 10SM FEW040 SCT070 BKN250 30/22 A3004 RMK AO2 SLP164 T03000217
KBHM 252053Z 16007KT 10SM BKN040 BKN090 BKN250 31/22 A3005 RMK AO2 SLP165 T03060217 56024
KBHM 251953Z 19009KT 10SM BKN040 BKN075 BKN250 31/20 A3006 RMK AO2 SLP170 T03110200
KBHM 251853Z 19008KT 10SM SCT038 32/21 A3008 RMK AO2 SLP178 T03220211
KBHM 251753Z 19010G15KT 10SM SCT035 BKN050 BKN070 31/22 A3012 RMK AO2 SLP190 T03060217 10306 20228 56010
KBHM 251653Z 17009G17KT 140V200 10SM FEW026 30/22 A3013 RMK AO2 SLP192 T03000217
KBHM 251621Z 18009KT 10SM SCT024 BKN120 29/22 A3013 RMK AO2 T02890222
KBHM 251604Z 18010G15KT 10SM SCT022 BKN029 29/22 A3014 RMK AO2 T02890222
KBHM 251553Z 15009KT 10SM SCT020 SCT150 28/22 A3014 RMK AO2 SLP198 T02830222
KBHM 251453Z 14011G18KT 10SM FEW012 SCT050 27/22 A3015 RMK AO2 SLP202 T02670222 51008
KBHM 251443Z 16007KT 10SM SCT012 BKN050 BKN100 26/22 A3015 RMK AO2 T02560222
KBHM 251433Z 18008KT 10SM BKN011 BKN050 BKN100 26/22 A3015 RMK AO2 T02560222
KBHM 251417Z VRB06KT 10SM BKN009 OVC013 25/23 A3015 RMK AO2 T02500228
KBHM 251353Z 15007KT 10SM BKN010 24/22 A3015 RMK AO2 CIG 009V013 SLP202 T02440222
KBHM 251310Z 14007KT 10SM BKN011 BKN070 24/22 A3014 RMK AO2 T02390222
KBHM 251253Z 12005KT 10SM FEW055 SCT140 24/22 A3014 RMK AO2 SLP199 T02390217
KBHM 251153Z 00000KT 10SM CLR 23/21 A3013 RMK AO2 SLP194 CB DSNT SW 70073 T02280211 10228 20222 51007
KBHM 251053Z 09003KT 10SM FEW049 SCT070 23/21 A3012 RMK AO2 SLP193 T02280211
KBHM 250953Z VRB03KT 10SM FEW065 23/21 A3011 RMK AO2 SLP189 T02280211
KBHM 250853Z 11003KT 10SM FEW065 23/21 A3010 RMK AO2 SLP185 T02280211 55001
KBHM 250753Z 11004KT 10SM SCT065 OVC080 23/21 A3010 RMK AO2 SLP184 T02280211
KBHM 250653Z 10004KT 10SM SCT070 22/21 A3011 RMK AO2 SLP185 T02220211
KBHM 250553Z 11006KT 10SM SCT250 22/21 A3010 RMK AO2 SLP186 60000 T02220211 10228 20222 403280222 50007
KBHM 250453Z 11007KT 10SM BKN250 22/21 A3012 RMK AO2 SLP190 T02220211
KBHM 250353Z 11003KT 10SM BKN250 23/21 A3010 RMK AO2 SLP186 T02280211
KBHM 250253Z 00000KT 10SM FEW140 BKN250 23/21 A3008 RMK AO2 SLP179 60000 T02280211 53002
KBHM 250153Z 13006KT 10SM FEW007 SCT140 OVC250 23/22 A3008 RMK AO2 SLP177 T02280217
KBHM 250053Z 13005KT 10SM FEW008 BKN120 OVC250 23/22 A3006 RMK AO2 RAE05 SLP171 P0000 T02280217
KBHM 242353Z 16006KT 10SM -RA FEW008 BKN080 OVC100 23/22 A3008 RMK AO2 LTG DSNT N AND NE TSE46 SLP178 TS MOV N P0032 60073 T02280217 10328 20228 51021
KBHM 242347Z 17007KT 9SM -RA FEW008 BKN060 OVC085 23/22 A3008 RMK AO2 LTG DSNT N AND NE TSE46 TS MOV N P0032
KBHM 242313Z 17011G15KT 4SM -TSRA BR FEW011 BKN033CB OVC060 23/21 A3006 RMK AO2 LTG DSNT ALQDS FRQ LTGICCC N-NE TS N-NE MOV N P0021 T02280211
KBHM 242256Z 17011G17KT 3SM +TSRA BR FEW010 BKN021 OVC038CB 23/22 A3006 RMK AO2 LTG DSNT ALQDS OCNL LTGIC N TS N MOV N P0007 T02280217
KBHM 242253Z 16009G22KT 1 1/4SM +TSRA BR SCT021 BKN040CB OVC055 23/22 A3005 RMK AO2 PK WND 21028/2235 WSHFT 2229 LTG DSNT ALQDS RAE2158B33 SLP170 OCNL LTGIC OHD TS OHD MOV N P0040 T02280217
KBHM 242249Z 18013G26KT 1 1/2SM +TSRA BR SCT021 BKN040CB OVC055 23/22 A3006 RMK AO2 PK WND 21028/2235 WSHFT 2229 LTG DSNT ALQDS RAE2158B33 OCNL LTGIC OHD TS OHD MOV N P0031
KBHM 242237Z 19018G28KT 1 3/4SM +TSRA BR SCT021 BKN040CB OVC055 24/22 A3006 RMK AO2 PK WND 21028/2235 VIS 1V5 LTG DSNT ALQDS RAE2158B33 PRESRR OCNL LTGIC S AND W TS S AND W MOV N P0009 T02390222